Time;durP1;ratioP1;P1;durP2;ratioP2;P2;SDS_P1;SDS_P2;PMS_P1;PMS_P2;Temp;Humidity;BMP_temperature;BMP_pressure;BME280_temperature;BME280_humidity;BME280_pressure;Samples;Min_cycle;Max_cycle;Signal;HPM_P1;HPM_P2
2022/04/06 00:01:39;;;;;;;25.55;10.05;;;8.70;99.90;;;;;;5034243;28;20076;-83
2022/04/06 00:04:05;;;;;;;25.45;9.48;;;8.50;99.90;;;;;;5016843;28;20130;-83
2022/04/06 00:06:30;;;;;;;24.63;8.80;;;9.00;99.90;;;;;;5016997;28;20068;-83
2022/04/06 00:08:56;;;;;;;22.15;8.90;;;8.70;99.90;;;;;;5016759;28;20057;-83
2022/04/06 00:11:23;;;;;;;27.95;9.20;;;9.20;99.90;;;;;;5034213;28;20159;-83
2022/04/06 00:13:49;;;;;;;25.42;9.07;;;8.90;99.90;;;;;;5033973;28;20079;-83
2022/04/06 00:16:15;;;;;;;26.42;9.23;;;8.60;99.90;;;;;;5032226;28;20554;-83
2022/04/06 00:18:41;;;;;;;22.60;8.95;;;9.40;99.90;;;;;;5032582;28;20389;-84
2022/04/06 00:21:06;;;;;;;21.92;8.68;;;8.60;99.90;;;;;;5032356;28;20041;-84
2022/04/06 00:23:32;;;;;;;21.35;7.90;;;9.70;99.90;;;;;;5032243;28;20400;-83
2022/04/06 00:25:58;;;;;;;29.02;8.45;;;9.40;99.90;;;;;;5032848;28;20033;-83
2022/04/06 00:28:23;;;;;;;19.88;7.85;;;8.60;99.90;;;;;;5033398;28;20050;-83
2022/04/06 00:30:54;;;;;;;24.98;8.45;;;8.60;99.90;;;;;;5033797;28;20041;-84
2022/04/06 00:33:20;;;;;;;19.73;6.90;;;8.70;99.90;;;;;;5034278;28;20085;-83
2022/04/06 00:35:46;;;;;;;22.23;6.90;;;8.10;99.90;;;;;;5035121;28;20456;-83
2022/04/06 00:38:11;;;;;;;19.38;6.70;;;8.70;99.90;;;;;;5039525;28;20132;-83
2022/04/06 00:40:37;;;;;;;19.63;6.95;;;8.70;99.90;;;;;;5036965;28;20129;-84
2022/04/06 00:43:08;;;;;;;20.85;7.00;;;8.60;99.90;;;;;;5038510;28;20045;-83
2022/04/06 00:45:34;;;;;;;21.58;7.50;;;8.70;99.90;;;;;;5036907;28;20053;-83
2022/04/06 00:47:59;;;;;;;18.48;7.53;;;8.70;99.90;;;;;;5036827;28;20052;-84
2022/04/06 00:50:25;;;;;;;23.98;7.13;;;8.70;99.90;;;;;;5036502;28;20128;-83
2022/04/06 00:52:57;;;;;;;26.60;7.38;;;9.70;99.90;;;;;;5020797;28;20041;-83
2022/04/06 00:55:31;;;;;;;19.05;6.95;;;8.80;99.90;;;;;;5021196;28;20042;-83
2022/04/06 00:57:58;;;;;;;20.97;7.20;;;8.70;99.90;;;;;;5036473;28;20083;-83
2022/04/06 01:00:24;;;;;;;18.88;7.13;;;9.70;99.90;;;;;;5037585;28;20284;-84
2022/04/06 01:02:50;;;;;;;19.00;7.05;;;8.70;99.90;;;;;;5020439;28;20045;-83
2022/04/06 01:05:16;;;;;;;18.00;6.50;;;8.70;99.90;;;;;;5037454;28;20097;-83
2022/04/06 01:07:50;;;;;;;24.55;7.00;;;8.70;99.90;;;;;;5020385;28;20103;-84
2022/04/06 01:10:16;;;;;;;17.50;6.18;;;8.70;99.90;;;;;;5038061;28;20045;-84
2022/04/06 01:12:46;;;;;;;16.73;5.68;;;8.70;99.90;;;;;;5036249;28;20049;-84
2022/04/06 01:15:12;;;;;;;16.98;5.68;;;8.60;99.90;;;;;;5039484;28;20124;-83
2022/04/06 01:17:38;;;;;;;18.65;5.68;;;8.70;99.90;;;;;;5037490;28;20599;-83
2022/04/06 01:20:07;;;;;;;17.88;5.40;;;8.70;99.90;;;;;;5020467;28;20124;-83
2022/04/06 01:22:32;;;;;;;13.30;5.55;;;8.70;99.90;;;;;;5037349;28;20033;-83
2022/04/06 01:24:58;;;;;;;18.05;5.15;;;8.70;99.90;;;;;;5037332;28;20369;-83
2022/04/06 01:27:24;;;;;;;12.20;4.75;;;8.90;99.90;;;;;;5020605;28;20045;-83
2022/04/06 01:29:52;;;;;;;14.65;4.15;;;9.30;99.90;;;;;;5020896;28;20100;-84
2022/04/06 01:32:23;;;;;;;10.73;3.97;;;8.90;99.90;;;;;;5037578;28;20049;-83
2022/04/06 01:34:50;;;;;;;13.25;4.85;;;9.40;99.90;;;;;;5039397;28;20076;-84
2022/04/06 01:37:17;;;;;;;12.13;3.80;;;9.70;99.90;;;;;;5042733;28;20128;-83
2022/04/06 01:39:44;;;;;;;11.43;4.18;;;8.80;99.90;;;;;;5025629;28;20049;-83
2022/04/06 01:42:11;;;;;;;11.10;4.00;;;9.30;99.90;;;;;;5046884;28;20528;-83
2022/04/06 01:44:37;;;;;;;10.68;3.78;;;8.70;99.90;;;;;;5048257;28;20053;-83
2022/04/06 01:47:06;;;;;;;12.77;3.92;;;8.70;99.90;;;;;;5044865;28;20042;-83
2022/04/06 01:52:17;;;;;;;12.13;3.78;;;8.80;99.90;;;;;;5040802;28;20073;-83
2022/04/06 01:54:50;;;;;;;8.90;3.67;;;9.50;99.90;;;;;;5038290;28;20396;-83
2022/04/06 01:57:17;;;;;;;12.57;3.30;;;8.80;99.90;;;;;;5038264;28;20057;-83
2022/04/06 01:59:43;;;;;;;5.60;2.83;;;8.80;99.90;;;;;;5037041;28;20049;-84
2022/04/06 02:02:12;;;;;;;8.77;3.00;;;8.80;99.90;;;;;;5037445;28;20453;-84
2022/04/06 02:04:39;;;;;;;8.63;2.72;;;8.30;99.90;;;;;;5038269;28;20057;-84
2022/04/06 02:07:05;;;;;;;10.07;2.63;;;9.10;99.90;;;;;;5038925;28;20098;-84
2022/04/06 02:09:31;;;;;;;11.00;2.30;;;8.80;99.90;;;;;;5038462;28;20430;-84
2022/04/06 02:11:58;;;;;;;7.75;2.42;;;9.70;99.90;;;;;;5040430;28;20135;-84
2022/04/06 02:14:25;;;;;;;8.38;2.03;;;9.00;99.90;;;;;;5022175;28;20045;-83
2022/04/06 02:16:54;;;;;;;9.15;2.75;;;8.80;99.90;;;;;;5038364;28;20053;-83
2022/04/06 02:19:21;;;;;;;7.70;2.05;;;8.70;99.90;;;;;;5038651;28;20405;-84
2022/04/06 02:21:47;;;;;;;10.23;2.47;;;8.50;99.90;;;;;;5038861;28;20068;-84
2022/04/06 02:24:12;;;;;;;7.18;2.22;;;8.80;99.90;;;;;;5037899;28;20045;-83
2022/04/06 02:26:38;;;;;;;7.28;2.45;;;8.70;99.90;;;;;;5039208;28;20045;-83
2022/04/06 02:29:03;;;;;;;7.47;2.50;;;9.10;99.90;;;;;;5037650;28;20064;-83
2022/04/06 02:31:29;;;;;;;8.10;2.22;;;9.50;99.90;;;;;;5038140;28;20038;-83
2022/04/06 02:33:55;;;;;;;6.45;2.60;;;8.90;99.90;;;;;;5037358;28;20044;-83
2022/04/06 02:36:21;;;;;;;10.82;3.03;;;8.80;99.90;;;;;;5037887;28;20091;-84
2022/04/06 02:38:47;;;;;;;9.05;2.72;;;8.70;99.90;;;;;;5022906;28;20045;-84
2022/04/06 02:41:13;;;;;;;8.35;2.90;;;8.70;99.90;;;;;;5037837;28;20128;-84
2022/04/06 02:43:39;;;;;;;10.50;3.05;;;8.70;99.90;;;;;;5021531;28;20053;-83
2022/04/06 02:46:05;;;;;;;8.90;3.05;;;8.70;99.90;;;;;;5055776;28;20033;-83
2022/04/06 02:48:31;;;;;;;14.70;4.22;;;8.70;99.90;;;;;;5040262;28;20095;-83
2022/04/06 02:50:56;;;;;;;11.07;3.10;;;8.70;99.90;;;;;;5038735;28;20431;-84
2022/04/06 02:53:22;;;;;;;12.88;3.60;;;8.70;99.90;;;;;;5037468;28;20057;-83
2022/04/06 02:55:49;;;;;;;10.10;3.65;;;9.70;99.90;;;;;;5040598;28;20402;-83
2022/04/06 02:58:15;;;;;;;12.13;3.65;;;8.60;99.90;;;;;;5039269;28;20045;-83
2022/04/06 03:00:41;;;;;;;11.80;3.55;;;8.60;99.90;;;;;;5022437;28;20048;-84
2022/04/06 03:03:07;;;;;;;9.85;3.00;;;8.60;99.90;;;;;;5023342;28;20045;-83
2022/04/06 03:05:32;;;;;;;14.30;3.60;;;8.60;99.90;;;;;;5040122;28;20045;-83
2022/04/06 03:07:59;;;;;;;12.20;3.13;;;8.60;99.90;;;;;;5023546;28;20041;-83
2022/04/06 03:10:24;;;;;;;15.55;4.30;;;8.60;99.90;;;;;;5023337;28;20041;-84
2022/04/06 03:12:50;;;;;;;11.45;3.90;;;8.70;99.90;;;;;;5022815;28;20094;-83
2022/04/06 03:15:16;;;;;;;19.17;5.00;;;8.70;99.90;;;;;;5040548;28;20489;-83
2022/04/06 03:17:42;;;;;;;18.63;4.95;;;8.80;99.90;;;;;;5039239;28;20049;-84
2022/04/06 03:20:11;;;;;;;15.07;5.18;;;9.20;99.90;;;;;;5038967;28;20072;-83
2022/04/06 03:22:36;;;;;;;14.38;5.40;;;8.60;99.90;;;;;;5041246;28;20057;-83
2022/04/06 03:25:02;;;;;;;17.13;4.90;;;9.90;99.90;;;;;;5040508;28;20401;-83
2022/04/06 03:27:28;;;;;;;22.77;5.80;;;8.60;99.90;;;;;;5023909;28;20038;-83
2022/04/06 03:29:54;;;;;;;19.08;5.53;;;8.60;99.90;;;;;;5039559;28;20048;-84
2022/04/06 03:32:19;;;;;;;19.52;6.07;;;9.70;99.90;;;;;;5039542;28;20053;-83
2022/04/06 03:34:45;;;;;;;20.50;6.28;;;9.60;99.90;;;;;;5039991;28;20033;-83
2022/04/06 03:37:11;;;;;;;17.77;6.40;;;9.70;99.90;;;;;;5040100;28;20037;-83
2022/04/06 03:39:36;;;;;;;20.42;6.55;;;9.30;99.90;;;;;;5023829;28;20042;-83
2022/04/06 03:42:02;;;;;;;15.75;6.28;;;8.70;99.90;;;;;;5040160;28;20085;-82
2022/04/06 03:44:28;;;;;;;22.48;6.45;;;8.60;99.90;;;;;;5023476;28;20069;-83
2022/04/06 03:46:59;;;;;;;22.15;7.57;;;8.60;99.90;;;;;;5039976;28;20484;-83
2022/04/06 03:49:24;;;;;;;19.60;7.05;;;8.60;99.90;;;;;;5023038;28;20401;-83
2022/04/06 03:51:50;;;;;;;17.20;6.15;;;8.60;99.90;;;;;;5039795;28;20049;-83
2022/04/06 03:54:16;;;;;;;18.90;7.38;;;9.90;99.90;;;;;;5023419;28;20064;-83
2022/04/06 03:56:41;;;;;;;14.57;6.57;;;8.60;99.90;;;;;;5023647;28;20128;-83
2022/04/06 03:59:07;;;;;;;20.08;6.78;;;8.60;99.90;;;;;;5039823;28;20041;-83
2022/04/06 04:01:35;;;;;;;17.98;7.30;;;8.90;99.90;;;;;;5039494;28;20042;-83
2022/04/06 04:04:03;;;;;;;16.27;7.38;;;8.50;99.90;;;;;;5023025;28;20067;-83
2022/04/06 04:06:28;;;;;;;18.88;7.13;;;9.70;99.90;;;;;;5023668;28;20037;-83
2022/04/06 04:08:54;;;;;;;17.67;6.47;;;9.50;99.90;;;;;;5039404;28;20045;-83
2022/04/06 04:11:19;;;;;;;18.92;7.53;;;8.80;99.90;;;;;;5042249;28;20046;-83
2022/04/06 04:13:45;;;;;;;21.30;6.68;;;8.60;99.90;;;;;;5027392;28;20147;-83
2022/04/06 04:16:11;;;;;;;15.73;6.03;;;8.60;99.90;;;;;;5027042;28;20050;-83
2022/04/06 04:18:36;;;;;;;12.77;5.80;;;8.40;99.90;;;;;;5026822;28;20084;-83
2022/04/06 04:23:46;;;;;;;17.42;5.60;;;8.40;99.90;;;;;;5043090;28;20056;-83
2022/04/06 04:26:12;;;;;;;17.38;6.20;;;8.40;99.90;;;;;;5043852;28;20049;-83
2022/04/06 04:28:37;;;;;;;15.95;6.03;;;9.50;99.90;;;;;;5045146;28;20046;-83
2022/04/06 04:31:03;;;;;;;18.80;5.55;;;9.50;99.90;;;;;;5026415;28;20049;-83
2022/04/06 04:33:29;;;;;;;16.13;5.93;;;9.50;99.90;;;;;;5026560;28;20048;-83
2022/04/06 04:35:54;;;;;;;17.20;7.38;;;8.40;99.90;;;;;;5027114;28;20041;-83
2022/04/06 04:38:20;;;;;;;15.77;5.68;;;9.50;99.90;;;;;;5026196;28;20045;-82
2022/04/06 04:40:46;;;;;;;15.77;5.32;;;9.70;99.90;;;;;;5026850;28;20091;-82
2022/04/06 04:43:11;;;;;;;18.20;5.60;;;8.30;99.90;;;;;;5041263;28;20047;-83
2022/04/06 04:45:37;;;;;;;17.00;5.15;;;8.40;99.90;;;;;;5040893;28;20037;-82
2022/04/06 04:48:03;;;;;;;16.10;5.13;;;8.30;99.90;;;;;;5024370;28;20037;-83
2022/04/06 04:50:29;;;;;;;15.93;5.60;;;8.20;99.90;;;;;;5093145;22;20174;-82
2022/04/06 04:52:55;;;;;;;18.73;5.13;;;8.20;99.90;;;;;;5065312;28;20071;-83
2022/04/06 04:55:21;;;;;;;16.17;4.88;;;9.40;99.90;;;;;;5064999;28;20471;-82
2022/04/06 04:57:47;;;;;;;19.67;5.00;;;9.40;99.90;;;;;;5064364;28;20037;-82
2022/04/06 05:00:13;;;;;;;14.18;4.60;;;9.40;99.90;;;;;;5075064;22;20048;-82
2022/04/06 05:02:39;;;;;;;18.98;4.85;;;8.20;99.90;;;;;;5080547;28;20487;-83
2022/04/06 05:05:09;;;;;;;17.13;4.85;;;8.00;99.90;;;;;;5090696;22;20045;-82
2022/04/06 05:07:38;;;;;;;14.68;4.38;;;8.10;99.90;;;;;;5060381;22;20045;-83
2022/04/06 05:10:08;;;;;;;14.35;4.45;;;8.10;99.90;;;;;;5071888;22;20449;-82
2022/04/06 05:12:34;;;;;;;15.43;4.18;;;8.10;99.90;;;;;;5063047;22;20096;-83
2022/04/06 05:15:01;;;;;;;14.00;4.22;;;8.10;99.90;;;;;;5062802;22;20110;-82
2022/04/06 05:17:30;;;;;;;17.30;4.05;;;8.90;99.90;;;;;;5064252;28;20136;-82
2022/04/06 05:19:56;;;;;;;14.90;3.83;;;7.70;99.90;;;;;;5078737;22;20083;-82
2022/04/06 05:22:22;;;;;;;13.50;3.92;;;8.00;99.90;;;;;;5054849;22;20057;-82
2022/04/06 05:24:48;;;;;;;19.13;4.10;;;8.20;99.90;;;;;;5062245;28;20052;-82
2022/04/06 05:27:14;;;;;;;11.52;3.42;;;8.50;99.90;;;;;;5067424;22;20059;-82
2022/04/06 05:29:41;;;;;;;14.10;3.85;;;8.00;99.90;;;;;;5057907;22;20048;-83
2022/04/06 05:32:08;;;;;;;11.13;3.55;;;7.90;99.90;;;;;;5084652;22;20050;-82
2022/04/06 05:34:35;;;;;;;13.07;3.70;;;7.90;99.90;;;;;;5071354;22;20059;-82
2022/04/06 05:37:03;;;;;;;11.45;3.58;;;7.90;99.90;;;;;;5079461;22;20083;-82
2022/04/06 05:39:36;;;;;;;13.38;3.70;;;7.90;99.90;;;;;;5068991;22;20059;31
2022/04/06 05:42:03;;;;;;;11.60;3.55;;;9.20;99.90;;;;;;5024080;28;20144;-81
2022/04/06 05:44:28;;;;;;;14.77;3.88;;;7.90;99.90;;;;;;5027532;28;20067;-83
2022/04/06 05:46:54;;;;;;;12.73;3.40;;;7.90;99.90;;;;;;5044792;28;20049;-82
2022/04/06 05:49:19;;;;;;;12.55;3.50;;;7.90;99.90;;;;;;5044015;28;20056;-82
2022/04/06 05:51:45;;;;;;;14.90;3.95;;;8.00;99.90;;;;;;5044403;28;20041;-82
2022/04/06 05:54:11;;;;;;;17.95;3.95;;;7.90;99.90;;;;;;5044254;28;20049;-82
2022/04/06 05:56:36;;;;;;;13.23;3.38;;;8.60;99.90;;;;;;5044195;28;20095;-82
2022/04/06 05:59:02;;;;;;;14.98;3.45;;;7.80;99.90;;;;;;5026729;28;20037;-82
2022/04/06 06:01:28;;;;;;;14.50;2.83;;;8.40;99.90;;;;;;5046596;28;20045;-82
2022/04/06 06:03:53;;;;;;;13.88;3.35;;;7.80;99.90;;;;;;5058843;22;20052;-83
2022/04/06 06:06:19;;;;;;;16.70;2.92;;;7.90;99.90;;;;;;5070673;28;20056;-82
2022/04/06 06:08:46;;;;;;;14.20;3.08;;;8.00;99.90;;;;;;5065669;28;20045;-82
2022/04/06 06:11:12;;;;;;;13.55;3.25;;;7.80;99.90;;;;;;5082351;28;20044;-82
2022/04/06 06:13:37;;;;;;;9.68;2.78;;;8.40;99.90;;;;;;5081752;28;20094;-82
2022/04/06 06:16:04;;;;;;;10.73;2.72;;;8.30;99.90;;;;;;5065592;28;20509;-82
2022/04/06 06:18:30;;;;;;;13.50;2.72;;;7.80;99.90;;;;;;5082448;28;20049;-83
2022/04/06 06:21:00;;;;;;;10.10;3.13;;;8.10;99.90;;;;;;5063306;28;20495;-82
2022/04/06 06:23:27;;;;;;;8.48;2.70;;;7.90;99.90;;;;;;5066492;22;20048;-82
2022/04/06 06:25:53;;;;;;;12.98;2.92;;;8.80;99.90;;;;;;5044721;28;20048;-82
2022/04/06 06:28:18;;;;;;;14.20;2.70;;;7.90;99.90;;;;;;5065040;22;20056;-81
2022/04/06 06:30:45;;;;;;;7.70;2.38;;;7.90;99.90;;;;;;5051202;22;20077;-82
2022/04/06 06:33:10;;;;;;;11.20;2.53;;;8.30;99.90;;;;;;5041265;28;20505;-82
2022/04/06 06:35:36;;;;;;;12.70;2.55;;;7.90;99.90;;;;;;5039369;28;20052;-82
2022/04/06 06:38:02;;;;;;;14.00;2.80;;;8.70;99.90;;;;;;5023414;28;20080;-82
2022/04/06 06:40:28;;;;;;;10.00;2.40;;;7.90;99.90;;;;;;5023848;28;20046;-82
2022/04/06 06:42:54;;;;;;;8.50;2.60;;;8.40;99.90;;;;;;5024707;28;20042;-82
2022/04/06 06:45:20;;;;;;;16.25;3.03;;;8.40;99.90;;;;;;5024084;28;20136;-82
2022/04/06 06:47:46;;;;;;;11.20;2.50;;;7.90;99.90;;;;;;5024125;28;20030;-82
2022/04/06 06:50:15;;;;;;;9.35;2.45;;;8.60;99.90;;;;;;5024148;28;20049;-82
2022/04/06 06:52:40;;;;;;;8.40;2.50;;;7.90;99.90;;;;;;5023504;28;20045;-82
2022/04/06 06:55:07;;;;;;;12.70;2.58;;;9.10;99.90;;;;;;5024476;28;20034;-82
2022/04/06 06:57:34;;;;;;;9.73;3.10;;;7.90;99.90;;;;;;5077214;22;20072;-82
2022/04/06 07:00:00;;;;;;;13.88;2.63;;;7.90;99.90;;;;;;5054240;22;20049;-81
2022/04/06 07:02:25;;;;;;;11.32;2.40;;;8.50;99.90;;;;;;5067185;22;20084;-81
2022/04/06 07:04:51;;;;;;;11.23;2.58;;;9.20;99.90;;;;;;5070554;22;20061;-82
2022/04/06 07:07:17;;;;;;;10.25;3.15;;;8.90;99.90;;;;;;5080594;22;20090;-81
2022/04/06 07:09:43;;;;;;;13.55;2.45;;;8.80;99.90;;;;;;5072745;22;20052;-81
2022/04/06 07:12:10;;;;;;;9.68;2.70;;;7.90;99.90;;;;;;5093268;22;20088;-81
2022/04/06 07:14:39;;;;;;;11.45;2.97;;;7.90;99.90;;;;;;5074003;22;20440;-82
2022/04/06 07:17:05;;;;;;;8.27;2.63;;;8.00;99.90;;;;;;5079714;22;20044;-81
2022/04/06 07:19:31;;;;;;;13.55;2.90;;;7.90;99.90;;;;;;5059351;22;20060;-82
2022/04/06 07:21:57;;;;;;;11.98;2.85;;;9.00;99.90;;;;;;5059224;22;20629;-82
2022/04/06 07:24:22;;;;;;;14.35;2.78;;;8.00;99.90;;;;;;5084512;22;20063;-81
2022/04/06 07:26:48;;;;;;;8.38;2.60;;;8.10;99.90;;;;;;5086716;22;20096;-82
2022/04/06 07:29:15;;;;;;;13.23;2.80;;;8.00;99.90;;;;;;5072915;22;20055;-81
2022/04/06 07:31:44;;;;;;;16.00;2.78;;;7.50;99.90;;;;;;5065920;28;20040;-82
2022/04/06 07:34:10;;;;;;;10.35;2.47;;;8.90;99.90;;;;;;5066466;28;20459;-82
2022/04/06 07:36:37;;;;;;;15.68;3.92;;;8.90;99.90;;;;;;5093640;22;20121;-82
2022/04/06 07:39:04;;;;;;;14.32;2.63;;;8.10;99.90;;;;;;5100327;22;20098;-81
2022/04/06 07:41:30;;;;;;;14.50;3.20;;;8.20;99.90;;;;;;5042048;28;20099;-82
2022/04/06 07:43:57;;;;;;;9.63;3.13;;;8.80;99.90;;;;;;5054948;22;20057;-81
2022/04/06 07:46:23;;;;;;;13.70;2.63;;;9.20;99.90;;;;;;5068650;22;20052;-81
2022/04/06 07:48:49;;;;;;;13.13;3.35;;;9.00;99.90;;;;;;5082020;22;20099;-82
2022/04/06 07:51:16;;;;;;;16.30;2.90;;;8.00;99.90;;;;;;5122245;28;20086;-82
2022/04/06 07:53:42;;;;;;;13.85;3.25;;;8.00;99.90;;;;;;5123029;27;20043;-82
2022/04/06 07:56:08;;;;;;;12.48;3.40;;;8.00;99.90;;;;;;5100731;22;20066;-81
2022/04/06 07:58:40;;;;;;;16.75;3.60;;;8.00;99.90;;;;;;5134340;22;20046;-82
2022/04/06 08:01:08;;;;;;;13.98;3.20;;;8.10;99.90;;;;;;5098249;22;20055;-81
2022/04/06 08:06:04;;;;;;;14.60;2.90;;;8.10;99.90;;;;;;5059320;28;20052;-83
2022/04/06 08:08:30;;;;;;;9.45;2.55;;;8.10;99.90;;;;;;5026053;28;20049;-83
2022/04/06 08:10:55;;;;;;;15.07;3.25;;;8.10;99.90;;;;;;5040828;28;20485;-82
2022/04/06 08:13:21;;;;;;;8.98;2.50;;;8.60;99.90;;;;;;5023825;28;20396;-83
2022/04/06 08:15:46;;;;;;;11.02;2.70;;;8.30;99.90;;;;;;5025301;28;20045;-82
2022/04/06 08:18:12;;;;;;;11.88;3.40;;;8.20;99.90;;;;;;5042353;28;20041;-82
2022/04/06 08:20:38;;;;;;;9.30;2.78;;;8.20;99.90;;;;;;5040345;28;20045;-83
2022/04/06 08:23:03;;;;;;;12.60;3.05;;;8.30;99.90;;;;;;5036928;28;20029;-85
2022/04/06 08:25:29;;;;;;;12.68;2.60;;;8.40;99.90;;;;;;5038348;28;20109;-82
2022/04/06 08:27:55;;;;;;;10.68;2.40;;;8.50;99.90;;;;;;5038240;28;20044;-83
2022/04/06 08:30:22;;;;;;;12.40;2.75;;;8.60;99.90;;;;;;5039189;28;20049;-82
2022/04/06 08:32:49;;;;;;;9.15;2.28;;;9.10;99.90;;;;;;5041390;28;20049;-82
2022/04/06 08:35:17;;;;;;;11.18;2.78;;;9.10;99.90;;;;;;5041793;28;20060;-82
2022/04/06 08:37:43;;;;;;;8.23;2.60;;;8.70;99.90;;;;;;5041615;28;20123;-82
2022/04/06 08:40:12;;;;;;;7.32;2.50;;;8.70;99.90;;;;;;5024234;28;20459;-82
2022/04/06 08:42:38;;;;;;;9.10;2.40;;;9.20;99.90;;;;;;5025724;28;20049;-82
2022/04/06 08:45:06;;;;;;;10.38;3.03;;;8.80;99.90;;;;;;5042638;28;20072;-82
2022/04/06 08:47:36;;;;;;;8.77;2.45;;;8.80;99.90;;;;;;5025703;28;20400;-82
2022/04/06 08:50:03;;;;;;;11.70;2.97;;;9.30;99.90;;;;;;5025666;28;20098;-82
2022/04/06 08:52:32;;;;;;;11.30;3.28;;;8.80;99.90;;;;;;5025688;28;20044;-82
2022/04/06 08:54:58;;;;;;;10.55;2.60;;;9.00;99.90;;;;;;5040906;28;20041;-83
2022/04/06 08:57:25;;;;;;;12.70;2.83;;;9.00;99.90;;;;;;5044418;28;20051;-82
2022/04/06 08:59:51;;;;;;;7.88;2.50;;;9.10;99.90;;;;;;5046047;28;20040;-82
2022/04/06 09:02:21;;;;;;;11.80;3.80;;;9.50;99.90;;;;;;5027419;28;20067;-82
2022/04/06 09:04:54;;;;;;;13.15;3.17;;;9.20;99.90;;;;;;5062648;28;20084;-82
2022/04/06 09:07:21;;;;;;;9.45;3.03;;;9.30;99.90;;;;;;5028234;28;20053;-83
2022/04/06 09:09:51;;;;;;;11.55;2.60;;;10.10;99.90;;;;;;5045253;28;20067;-83
2022/04/06 09:12:19;;;;;;;10.73;2.97;;;9.90;99.90;;;;;;5063616;28;20053;-83
2022/04/06 09:14:46;;;;;;;12.50;2.88;;;9.70;99.90;;;;;;5045965;28;20120;-82
2022/04/06 09:17:12;;;;;;;10.35;2.83;;;9.30;99.90;;;;;;5062894;28;20049;-83
2022/04/06 09:19:38;;;;;;;12.57;3.00;;;9.30;99.90;;;;;;5051281;28;20063;-82
2022/04/06 09:22:07;;;;;;;10.10;2.97;;;10.60;99.90;;;;;;5050450;28;20047;-82
2022/04/06 09:24:33;;;;;;;9.80;3.00;;;9.50;99.90;;;;;;5064477;28;20610;-82
2022/04/06 09:27:01;;;;;;;11.50;3.03;;;9.50;99.90;;;;;;5064091;28;20049;-82
2022/04/06 09:29:27;;;;;;;10.40;2.92;;;10.10;99.90;;;;;;5028904;28;20049;-82
2022/04/06 09:31:53;;;;;;;13.10;3.10;;;9.50;99.90;;;;;;5064357;28;20045;-83
2022/04/06 09:34:23;;;;;;;11.52;2.75;;;9.60;99.90;;;;;;5029172;28;20051;-83
2022/04/06 09:36:56;;;;;;;10.35;2.83;;;9.90;99.90;;;;;;5063839;28;20047;-82
2022/04/06 09:39:44;;;;;;;10.95;2.95;;;9.70;99.90;;;;;;5046617;28;20052;-83
2022/04/06 09:42:27;;;;;;;15.23;3.03;;;9.80;99.90;;;;;;5047929;28;20044;-82
2022/04/06 09:47:58;;;;;;;12.25;3.10;;;9.80;99.90;;;;;;5045359;28;20049;-82
2022/04/06 09:50:29;;;;;;;10.38;2.92;;;9.80;99.90;;;;;;5044245;28;20365;-83
2022/04/06 09:53:00;;;;;;;14.02;3.65;;;9.90;99.90;;;;;;5044961;28;20045;-83
2022/04/06 09:55:25;;;;;;;12.20;3.05;;;9.90;99.90;;;;;;5044605;28;20045;-83
2022/04/06 09:57:56;;;;;;;13.55;3.28;;;9.90;99.90;;;;;;5064388;28;20036;-83
2022/04/06 10:00:31;;;;;;;14.80;3.47;;;10.00;99.90;;;;;;5064592;28;20044;-83
2022/04/06 10:03:07;;;;;;;14.25;3.35;;;9.80;99.90;;;;;;5045739;28;20469;-83
2022/04/06 10:05:35;;;;;;;12.35;3.65;;;9.80;99.90;;;;;;5044911;28;20146;-83
2022/04/06 10:08:02;;;;;;;9.60;3.03;;;9.70;99.90;;;;;;5060442;28;20037;-83
2022/04/06 10:10:28;;;;;;;11.20;3.47;;;9.60;99.90;;;;;;5027402;28;20044;-83
2022/04/06 10:12:56;;;;;;;14.57;3.65;;;9.70;99.90;;;;;;5043957;28;20041;-83
2022/04/06 10:15:24;;;;;;;16.00;3.33;;;9.70;99.90;;;;;;5044209;28;20041;-83
2022/04/06 10:17:49;;;;;;;12.00;3.45;;;10.50;99.90;;;;;;5044067;28;20105;-83
2022/04/06 10:20:32;;;;;;;10.65;3.33;;;9.60;99.90;;;;;;5043641;28;20084;-83
2022/04/06 10:23:19;;;;;;;15.02;3.75;;;9.70;99.90;;;;;;5044323;28;20519;-83
2022/04/06 10:25:56;;;;;;;14.48;3.35;;;9.70;99.90;;;;;;5044449;28;20053;-83
2022/04/06 10:28:22;;;;;;;15.73;3.67;;;9.80;99.90;;;;;;5043749;28;20045;-84
2022/04/06 10:31:18;;;;;;;17.98;3.83;;;10.30;99.90;;;;;;5043779;28;20040;-83
2022/04/06 10:33:45;;;;;;;11.18;3.65;;;9.90;99.90;;;;;;5043587;28;20061;-83
2022/04/06 10:36:29;;;;;;;16.90;3.70;;;9.90;99.90;;;;;;5043401;28;20044;-83
2022/04/06 10:39:07;;;;;;;16.50;3.83;;;9.80;99.90;;;;;;5062142;28;20044;-83
2022/04/06 10:41:39;;;;;;;14.45;3.40;;;10.20;99.90;;;;;;5027376;28;20044;-83
2022/04/06 10:44:05;;;;;;;11.25;3.10;;;9.90;99.90;;;;;;5062248;28;20045;-83
2022/04/06 10:46:34;;;;;;;16.75;3.97;;;10.70;99.90;;;;;;5044035;28;20124;-84
2022/04/06 10:49:12;;;;;;;18.23;3.83;;;10.00;99.90;;;;;;5062309;28;20048;-82
2022/04/06 10:51:50;;;;;;;17.83;4.20;;;9.90;99.90;;;;;;5044173;28;20064;-83
2022/04/06 10:54:15;;;;;;;15.57;4.22;;;10.10;99.90;;;;;;5044447;28;20052;-83
2022/04/06 10:56:50;;;;;;;16.13;4.65;;;10.00;99.90;;;;;;5044518;28;20057;-83
2022/04/06 10:59:18;;;;;;;16.57;4.30;;;10.10;99.90;;;;;;5062370;28;20098;-83
2022/04/06 11:02:26;;;;;;;19.73;4.60;;;10.20;99.90;;;;;;5044239;28;20304;-83
2022/04/06 11:04:52;;;;;;;22.25;5.03;;;10.40;99.90;;;;;;5026798;28;20112;-83
2022/04/06 11:10:06;;;;;;;14.25;3.47;;;10.60;99.90;;;;;;5060823;28;20041;-83
2022/04/06 11:10:17;;;;;;;14.52;3.88;;;10.70;99.90;;;;;;5042400;28;20076;-83
2022/04/06 11:13:03;;;;;;;16.60;3.15;;;10.80;99.90;;;;;;5062120;28;20041;-83
2022/04/06 11:15:51;;;;;;;14.50;3.50;;;11.00;99.90;;;;;;5044405;28;20048;-83
2022/04/06 11:18:49;;;;;;;14.05;3.85;;;11.10;99.90;;;;;;5062602;28;20443;-83
2022/04/06 11:21:15;;;;;;;16.65;3.47;;;11.20;99.90;;;;;;5042158;28;20075;-83
2022/04/06 11:23:42;;;;;;;14.63;3.63;;;11.20;99.90;;;;;;5060683;28;20147;-84
2022/04/06 11:26:07;;;;;;;15.27;3.10;;;11.30;99.90;;;;;;5042469;28;20049;-83
2022/04/06 11:28:33;;;;;;;18.45;3.47;;;11.30;99.90;;;;;;5043686;28;20055;-83
2022/04/06 11:31:03;;;;;;;12.05;3.28;;;11.20;99.90;;;;;;5061016;28;20052;-83
2022/04/06 11:33:42;;;;;;;13.73;3.47;;;11.20;99.90;;;;;;5026206;28;20424;-84
2022/04/06 11:36:16;;;;;;;14.00;3.38;;;11.40;99.90;;;;;;5060470;28;20085;-83
2022/04/06 11:38:42;;;;;;;16.40;3.67;;;11.90;99.90;;;;;;5041917;28;20097;-83
2022/04/06 11:41:07;;;;;;;15.73;3.25;;;11.50;99.90;;;;;;5043379;28;20492;-84
2022/04/06 11:43:40;;;;;;;14.15;2.90;;;11.90;99.90;;;;;;5042119;28;20083;-83
2022/04/06 11:46:06;;;;;;;10.93;2.53;;;11.60;99.90;;;;;;5041677;28;20049;-84
2022/04/06 11:48:42;;;;;;;12.63;2.88;;;11.50;99.90;;;;;;5028191;28;20056;-83
2022/04/06 11:51:09;;;;;;;16.10;3.00;;;11.50;99.90;;;;;;5064029;28;20119;-83
2022/04/06 11:53:35;;;;;;;15.05;2.80;;;11.50;99.90;;;;;;5027473;28;20072;-83
2022/04/06 11:56:01;;;;;;;11.98;2.97;;;11.40;99.90;;;;;;5041743;28;20095;-83
2022/04/06 11:58:28;;;;;;;14.73;2.58;;;11.80;99.90;;;;;;5025762;28;20045;-83
2022/04/06 12:01:15;;;;;;;13.27;2.47;;;11.50;99.90;;;;;;5059524;28;20045;-84
2022/04/06 12:03:42;;;;;;;10.77;3.00;;;11.60;99.90;;;;;;5059739;28;20256;-84
2022/04/06 12:06:11;;;;;;;9.80;2.47;;;11.70;99.90;;;;;;5041887;28;20087;-83
2022/04/06 12:08:38;;;;;;;12.77;2.42;;;12.00;99.90;;;;;;5045047;28;20049;-84
2022/04/06 12:11:04;;;;;;;11.50;2.85;;;11.90;99.90;;;;;;5060378;28;20045;-84
2022/04/06 12:13:32;;;;;;;10.38;2.55;;;12.00;99.90;;;;;;5059736;28;20056;-83
2022/04/06 12:15:59;;;;;;;10.45;2.58;;;11.70;99.90;;;;;;5041529;28;20056;-83
2022/04/06 12:18:31;;;;;;;12.55;2.58;;;12.50;99.90;;;;;;5042518;28;20045;-84
2022/04/06 12:20:57;;;;;;;9.00;2.38;;;11.90;99.90;;;;;;5041213;28;20053;-83
2022/04/06 12:23:25;;;;;;;8.80;2.40;;;11.90;99.90;;;;;;5060198;28;20052;-83
2022/04/06 12:25:51;;;;;;;10.30;2.55;;;12.00;99.90;;;;;;5060031;28;20048;-83
2022/04/06 12:28:21;;;;;;;12.23;2.97;;;11.60;99.90;;;;;;5059805;28;20049;-83
2022/04/06 12:30:50;;;;;;;10.68;3.10;;;11.60;99.90;;;;;;5041762;28;20041;-84
2022/04/06 12:33:31;;;;;;;11.25;2.85;;;11.30;99.90;;;;;;5046120;28;20060;-84
2022/04/06 12:36:06;;;;;;;11.20;2.38;;;11.30;99.90;;;;;;5046293;28;20055;-83
2022/04/06 12:38:32;;;;;;;13.60;2.90;;;11.40;99.90;;;;;;5062173;28;20037;-84
2022/04/06 12:41:09;;;;;;;12.20;2.83;;;11.50;99.90;;;;;;5043842;28;20500;-84
2022/04/06 12:43:45;;;;;;;10.98;2.58;;;11.70;99.90;;;;;;5063041;28;20045;-83
2022/04/06 12:46:12;;;;;;;14.00;3.00;;;12.10;99.90;;;;;;5063136;28;20048;-83
2022/04/06 12:48:37;;;;;;;11.13;2.50;;;12.00;99.90;;;;;;5045268;28;20049;-84
2022/04/06 12:51:21;;;;;;;9.23;2.40;;;12.70;99.90;;;;;;5044406;28;20392;-84
2022/04/06 12:53:51;;;;;;;9.98;2.65;;;11.90;99.90;;;;;;5061592;28;20053;-83
2022/04/06 12:56:22;;;;;;;10.32;2.65;;;12.00;99.90;;;;;;5045790;28;20117;-83
2022/04/06 12:59:09;;;;;;;14.00;3.08;;;12.10;99.90;;;;;;5061036;28;20094;-84
2022/04/06 13:01:46;;;;;;;14.57;4.75;;;12.00;99.90;;;;;;5060179;28;20492;-84